Time;durP1;ratioP1;P1;durP2;ratioP2;P2;SDS_P1;SDS_P2;PMS_P1;PMS_P2;Temp;Humidity;BMP_temperature;BMP_pressure;BME280_temperature;BME280_humidity;BME280_pressure;Samples;Min_cycle;Max_cycle;Signal;HPM_P1;HPM_P2
2022/08/20 00:01:48;;;;;;;19.52;11.07;;;;;;;21.56;90.52;98875.50;8353879;28;20052;-74
2022/08/20 00:05:53;;;;;;;23.70;12.20;;;;;;;21.52;90.63;98880.19;8313863;28;20060;-75
2022/08/20 00:09:54;;;;;;;19.73;11.68;;;;;;;21.49;91.24;98893.53;8296379;28;20160;-76
2022/08/20 00:13:58;;;;;;;14.57;10.35;;;;;;;21.45;91.48;98892.72;8298608;28;20048;-75
2022/08/20 00:17:59;;;;;;;20.67;11.13;;;;;;;21.42;91.51;98887.97;8338745;28;20119;-75
2022/08/20 00:22:00;;;;;;;24.05;11.98;;;;;;;21.41;91.64;98891.91;8327817;28;20401;-75
2022/08/20 00:26:01;;;;;;;20.85;12.23;;;;;;;21.38;91.74;98891.88;8336086;28;20057;-75
2022/08/20 00:30:06;;;;;;;22.92;10.75;;;;;;;21.37;91.63;98896.59;8348149;28;20093;-75
2022/08/20 00:34:07;;;;;;;22.42;11.80;;;;;;;21.35;91.47;98887.97;8351854;28;20049;-75
2022/08/20 00:38:08;;;;;;;15.07;10.48;;;;;;;21.29;91.40;98884.00;8340575;28;20055;-75
2022/08/20 00:42:09;;;;;;;19.88;11.00;;;;;;;21.17;91.68;98887.09;8349511;28;20060;-75
2022/08/20 00:46:15;;;;;;;26.65;11.73;;;;;;;21.12;91.74;98890.16;8304804;28;20057;-75
2022/08/20 00:50:20;;;;;;;20.85;11.63;;;;;;;21.05;92.13;98879.13;8328581;28;20049;-75
2022/08/20 00:54:41;;;;;;;16.48;10.35;;;;;;;21.04;92.18;98896.78;8359543;28;20090;-75
2022/08/20 00:58:44;;;;;;;19.52;11.30;;;;;;;21.01;92.06;98889.31;8347836;28;20041;-75
2022/08/20 01:02:46;;;;;;;16.42;10.85;;;;;;;20.97;92.12;98888.50;8328713;28;20037;-75
2022/08/20 01:06:47;;;;;;;28.08;12.73;;;;;;;20.92;92.34;98886.13;8346790;28;20655;-75
2022/08/20 01:10:52;;;;;;;21.70;11.07;;;;;;;20.92;92.18;98886.13;8361932;28;20185;-75
2022/08/20 01:14:54;;;;;;;15.02;10.07;;;;;;;20.87;92.18;98883.75;8320090;28;20041;-75
2022/08/20 01:18:56;;;;;;;15.85;10.10;;;;;;;20.84;91.90;98892.72;8344155;28;20816;-75
2022/08/20 01:23:29;;;;;;;20.13;10.68;;;;;;;20.75;92.10;98889.53;8323880;28;20132;-75
2022/08/20 01:27:31;;;;;;;18.90;9.68;;;;;;;20.69;92.28;98888.31;8348080;28;20447;-75
2022/08/20 01:31:34;;;;;;;14.57;8.95;;;;;;;20.66;92.09;98884.38;8318252;28;20056;-75
2022/08/20 01:35:38;;;;;;;22.08;9.95;;;;;;;20.62;92.03;98898.06;8353883;28;20037;-75
2022/08/20 01:39:38;;;;;;;16.88;9.63;;;;;;;20.60;92.24;98903.16;8355003;28;20134;-75
2022/08/20 01:43:40;;;;;;;21.35;10.65;;;;;;;20.57;92.27;98881.94;8363919;28;20048;-74
2022/08/20 01:47:41;;;;;;;18.00;10.30;;;;;;;20.52;92.65;98874.06;8351035;28;20513;-74
2022/08/20 01:51:42;;;;;;;18.10;10.23;;;;;;;20.51;93.06;98860.75;8356150;28;20050;-74
2022/08/20 01:55:43;;;;;;;19.13;9.73;;;;;;;20.46;93.49;98852.88;8321303;28;20041;-75
2022/08/20 01:59:46;;;;;;;16.20;9.82;;;;;;;20.40;93.67;98846.94;8326689;28;20701;-75
2022/08/20 02:03:48;;;;;;;15.55;9.40;;;;;;;20.39;93.50;98848.13;8329747;28;20052;-74
2022/08/20 02:07:49;;;;;;;20.95;11.13;;;;;;;20.36;93.10;98851.59;8347892;28;20049;-75
2022/08/20 02:11:52;;;;;;;24.88;11.00;;;;;;;20.32;93.36;98842.56;8337030;28;20049;-74
2022/08/20 02:15:53;;;;;;;17.13;10.35;;;;;;;20.29;93.23;98843.31;8336294;28;20049;-75
2022/08/20 02:20:00;;;;;;;21.58;11.85;;;;;;;20.21;93.44;98852.63;8346894;28;20129;-75
2022/08/20 02:24:02;;;;;;;24.37;12.27;;;;;;;20.22;93.25;98854.19;8356730;28;20055;-75
2022/08/20 02:28:06;;;;;;;26.30;13.05;;;;;;;20.22;93.22;98848.72;8350099;28;20045;-75
2022/08/20 02:32:07;;;;;;;19.42;12.07;;;;;;;20.21;93.27;98847.13;8360564;28;20486;-75
2022/08/20 02:36:11;;;;;;;25.55;14.68;;;;;;;20.20;93.13;98862.00;8355699;28;20042;-75
2022/08/20 02:40:15;;;;;;;25.95;16.95;;;;;;;20.20;93.21;98851.03;8360650;28;20048;-75
2022/08/20 02:44:19;;;;;;;33.10;19.58;;;;;;;20.18;93.50;98843.22;8325469;28;20078;-75
2022/08/20 02:48:21;;;;;;;34.65;18.48;;;;;;;20.21;93.72;98836.16;8362326;28;20041;-74
2022/08/20 02:52:22;;;;;;;39.25;19.50;;;;;;;20.20;93.76;98818.94;8356312;28;20055;-76
2022/08/20 02:56:23;;;;;;;27.95;17.90;;;;;;;20.21;93.85;98820.50;8325739;28;20132;-75
2022/08/20 03:00:25;;;;;;;36.45;20.75;;;;;;;20.21;94.06;98803.28;8354060;28;20041;-76
2022/08/20 03:04:26;;;;;;;30.55;19.80;;;;;;;20.21;94.18;98808.75;8356234;28;20094;-76
2022/08/20 03:08:28;;;;;;;26.20;18.77;;;;;;;20.20;94.10;98802.47;8318038;28;20054;-76
2022/08/20 03:12:29;;;;;;;34.55;18.67;;;;;;;20.17;93.78;98807.94;8347465;28;20421;-75
2022/08/20 03:16:29;;;;;;;31.70;19.88;;;;;;;20.12;94.04;98792.63;8354795;28;20128;-75
2022/08/20 03:20:31;;;;;;;28.67;18.90;;;;;;;20.08;94.12;98782.81;8360333;28;20076;-75
2022/08/20 03:24:32;;;;;;;32.50;19.95;;;;;;;20.05;93.86;98805.47;8343447;28;20056;-75
2022/08/20 03:28:33;;;;;;;26.48;18.67;;;;;;;19.95;94.16;98795.22;8343301;28;20421;-75
2022/08/20 03:32:34;;;;;;;26.05;18.08;;;;;;;19.92;94.24;98801.47;8345573;28;20430;-75
2022/08/20 03:36:35;;;;;;;26.42;17.08;;;;;;;19.93;93.90;98803.84;8343381;28;20414;-75
2022/08/20 03:40:37;;;;;;;24.50;16.60;;;;;;;19.91;94.18;98821.81;8348650;28;20084;-74
2022/08/20 03:44:38;;;;;;;24.55;16.50;;;;;;;19.88;94.11;98833.53;8349063;28;20041;-76
2022/08/20 03:48:38;;;;;;;23.50;17.88;;;;;;;19.86;94.40;98841.34;8340653;28;20117;-75
2022/08/20 03:52:40;;;;;;;37.30;24.05;;;;;;;19.83;94.69;98870.25;8349121;28;20696;-74
2022/08/20 03:56:40;;;;;;;32.90;22.50;;;;;;;19.81;94.93;98878.88;8352669;28;20045;-75
2022/08/20 04:00:47;;;;;;;38.83;24.27;;;;;;;19.86;94.79;98874.22;8331574;28;20049;-75
2022/08/20 04:04:48;;;;;;;50.05;31.67;;;;;;;19.91;94.79;98865.66;8356513;28;20073;-75
2022/08/20 04:08:52;;;;;;;49.72;34.00;;;;;;;19.92;94.84;98835.13;8343974;28;20037;-75
2022/08/20 04:12:53;;;;;;;46.40;30.30;;;;;;;19.92;95.31;98828.88;8320246;28;20057;-75
2022/08/20 04:16:54;;;;;;;58.47;34.28;;;;;;;19.93;95.62;98824.97;8345695;28;20094;-75
2022/08/20 04:20:55;;;;;;;54.33;33.83;;;;;;;19.95;95.86;98808.91;8346145;28;20129;-74
2022/08/20 04:24:56;;;;;;;53.83;33.97;;;;;;;20.00;95.82;98809.38;8339383;28;20073;-75
2022/08/20 04:28:57;;;;;;;53.95;33.90;;;;;;;20.03;96.00;98807.84;8331452;28;20052;-75
2022/08/20 04:32:58;;;;;;;49.90;32.92;;;;;;;20.06;95.77;98820.78;8330209;28;20045;-75
2022/08/20 04:36:59;;;;;;;45.00;31.02;;;;;;;20.10;95.69;98838.03;8341334;28;20041;-75
2022/08/20 04:41:00;;;;;;;53.97;32.90;;;;;;;20.11;95.84;98854.09;8333607;28;20053;-75
2022/08/20 04:45:06;;;;;;;44.58;30.65;;;;;;;20.10;95.75;98865.44;8340183;28;20060;-75
2022/08/20 04:49:07;;;;;;;55.22;31.98;;;;;;;20.10;95.87;98862.69;8330026;28;20052;-75
2022/08/20 04:53:10;;;;;;;46.50;27.20;;;;;;;20.12;95.91;98866.66;8331482;28;20070;-74
2022/08/20 04:57:11;;;;;;;29.60;18.30;;;;;;;20.17;96.31;98873.75;8277740;28;20041;-75
2022/08/20 05:01:11;;;;;;;30.48;17.52;;;;;;;20.21;96.26;98882.78;8334300;28;20041;-75
2022/08/20 05:05:13;;;;;;;26.20;16.52;;;;;;;20.27;96.38;98875.78;8333319;28;20064;-75
2022/08/20 05:09:15;;;;;;;34.83;17.20;;;;;;;20.31;96.88;98879.38;8330445;28;20041;-75
2022/08/20 05:13:17;;;;;;;28.45;15.88;;;;;;;20.37;96.61;98872.38;8339198;28;20041;-75
2022/08/20 05:17:18;;;;;;;32.38;15.50;;;;;;;20.42;96.56;98869.28;8321414;28;20037;-75
2022/08/20 05:21:19;;;;;;;28.48;15.30;;;;;;;20.48;96.38;98856.81;8324971;28;20041;-75
2022/08/20 05:25:21;;;;;;;28.05;15.57;;;;;;;20.53;96.39;98858.41;8333179;28;20517;-75
2022/08/20 05:29:22;;;;;;;33.67;15.80;;;;;;;20.58;96.23;98847.84;8338448;28;20095;-75
2022/08/20 05:33:23;;;;;;;31.27;16.63;;;;;;;20.67;95.81;98830.28;8336614;28;20034;-75
2022/08/20 05:37:24;;;;;;;28.27;15.90;;;;;;;20.68;95.73;98827.16;8335477;28;20045;-75
2022/08/20 05:41:27;;;;;;;31.10;16.30;;;;;;;20.69;96.06;98838.91;8331269;28;20165;-75
2022/08/20 05:45:28;;;;;;;26.38;15.63;;;;;;;20.67;96.50;98857.72;8326875;28;20070;-75
2022/08/20 05:49:29;;;;;;;30.92;15.90;;;;;;;20.62;97.32;98851.41;8333615;28;20049;-74
2022/08/20 05:53:30;;;;;;;31.88;15.93;;;;;;;20.64;97.55;98848.28;8329805;28;20494;-75
2022/08/20 05:57:33;;;;;;;27.85;17.65;;;;;;;20.67;97.79;98852.25;8332551;28;20094;-75
2022/08/20 06:01:36;;;;;;;32.47;19.17;;;;;;;20.71;98.15;98864.03;8333192;28;20038;-75
2022/08/20 06:05:37;;;;;;;31.67;18.42;;;;;;;20.68;98.68;98860.06;8333445;28;20088;-75
2022/08/20 06:09:38;;;;;;;35.92;18.30;;;;;;;20.77;98.28;98857.00;8336945;28;20042;-74
2022/08/20 06:13:39;;;;;;;34.83;18.23;;;;;;;20.86;98.47;98871.19;8333401;28;20083;-74
2022/08/20 06:17:40;;;;;;;31.40;17.45;;;;;;;20.99;97.99;98858.72;8339696;28;20484;-75
2022/08/20 06:21:41;;;;;;;38.08;23.15;;;;;;;21.15;97.41;98858.44;8333198;28;20061;-75
2022/08/20 06:25:42;;;;;;;40.10;24.65;;;;;;;21.22;97.45;98856.50;8283221;28;20106;-75
2022/08/20 06:29:43;;;;;;;43.70;26.65;;;;;;;21.22;97.73;98851.00;8342337;28;20626;-75
2022/08/20 06:33:44;;;;;;;45.35;27.40;;;;;;;21.32;98.14;98855.75;8335295;28;20494;-74
2022/08/20 06:37:45;;;;;;;48.72;27.55;;;;;;;21.39;97.63;98850.31;8339578;28;20080;-75
2022/08/20 06:41:46;;;;;;;51.60;31.70;;;;;;;21.51;96.89;98851.13;8334929;28;20536;-75
2022/08/20 06:45:47;;;;;;;63.13;34.78;;;;;;;21.55;96.97;98862.91;8338896;28;20069;-75
2022/08/20 06:49:48;;;;;;;53.88;35.03;;;;;;;21.68;96.26;98866.91;8330945;28;20106;-75
2022/08/20 06:53:51;;;;;;;56.33;36.42;;;;;;;21.64;95.52;98866.09;8341402;28;20038;-76
2022/08/20 06:58:00;;;;;;;60.03;38.55;;;;;;;21.65;95.53;98867.66;8341270;28;20096;-76
2022/08/20 07:02:01;;;;;;;64.10;39.95;;;;;;;21.57;95.96;98871.56;8341052;28;20046;-75
2022/08/20 07:06:02;;;;;;;58.80;40.88;;;;;;;21.51;96.10;98878.63;8342495;28;20084;-75
2022/08/20 07:10:06;;;;;;;67.75;42.53;;;;;;;21.46;95.81;98883.31;8335463;28;20405;-75
2022/08/20 07:14:08;;;;;;;65.20;42.28;;;;;;;21.45;95.98;98873.50;8340481;28;20048;-74
2022/08/20 07:18:10;;;;;;;64.68;43.70;;;;;;;21.47;95.75;98884.88;8294928;28;20052;-75
2022/08/20 07:22:12;;;;;;;66.88;42.03;;;;;;;21.49;95.69;98877.03;8338630;28;20040;-73
2022/08/20 07:26:13;;;;;;;71.85;45.72;;;;;;;21.57;95.45;98871.56;8333730;28;20050;-75
2022/08/20 07:34:44;;;;;;;65.53;42.28;;;;;;;21.67;94.90;98876.31;8323249;28;20176;-75
2022/08/20 07:38:49;;;;;;;71.72;41.90;;;;;;;21.68;94.76;98892.41;8341400;28;20701;-76
2022/08/20 07:42:50;;;;;;;62.83;41.38;;;;;;;21.71;94.48;98893.59;8340801;28;20148;-75
2022/08/20 07:46:51;;;;;;;61.88;41.00;;;;;;;21.75;93.95;98891.66;8332859;28;20064;-76
2022/08/20 07:50:53;;;;;;;61.88;39.85;;;;;;;21.78;93.87;98888.13;8346501;28;20533;-75
2022/08/20 07:54:54;;;;;;;61.40;39.25;;;;;;;21.82;93.69;98891.66;8288696;28;20102;-76
2022/08/20 07:58:58;;;;;;;63.33;39.60;;;;;;;21.82;93.49;98888.94;8341040;28;20041;-77
2022/08/20 08:02:59;;;;;;;63.47;39.33;;;;;;;21.94;92.89;98896.03;8336902;28;20042;-77
2022/08/20 08:07:00;;;;;;;60.33;38.72;;;;;;;21.99;92.81;98904.72;8334499;28;20513;-77
2022/08/20 08:11:03;;;;;;;68.22;40.83;;;;;;;22.03;92.38;98908.25;8318310;28;20060;-76
2022/08/20 08:15:09;;;;;;;60.40;38.13;;;;;;;22.07;92.08;98900.78;8341116;28;20482;-76
2022/08/20 08:19:13;;;;;;;62.88;39.20;;;;;;;22.20;91.28;98915.75;8332304;28;20046;-77
2022/08/20 08:23:14;;;;;;;60.83;39.25;;;;;;;22.32;90.35;98912.63;8339582;28;20068;-78
2022/08/20 08:27:18;;;;;;;75.55;41.90;;;;;;;22.28;89.83;98922.84;8340010;28;20437;-76
2022/08/20 08:31:19;;;;;;;66.50;39.60;;;;;;;22.27;89.84;98921.25;8335115;28;20397;-76
2022/08/20 08:35:21;;;;;;;61.58;37.35;;;;;;;22.33;89.69;98919.69;8357077;28;20036;-77
2022/08/20 08:39:21;;;;;;;66.10;39.08;;;;;;;22.47;89.24;98918.16;8338564;28;20046;-76
2022/08/20 08:43:24;;;;;;;65.10;39.53;;;;;;;22.64;88.47;98925.59;8288974;28;20049;-76
2022/08/20 08:47:31;;;;;;;67.75;41.75;;;;;;;22.82;87.69;98940.19;8339789;28;20486;-75
2022/08/20 08:51:37;;;;;;;63.20;40.08;;;;;;;23.00;86.92;98946.47;8338377;28;20482;-76
2022/08/20 08:55:39;;;;;;;69.63;42.10;;;;;;;23.23;86.63;98931.47;8309633;28;20474;-76
2022/08/20 08:59:40;;;;;;;66.60;41.50;;;;;;;23.44;85.38;98920.41;8328718;28;20054;-76
2022/08/20 09:03:44;;;;;;;68.80;41.92;;;;;;;23.61;84.53;98907.75;8310210;28;20093;-77
2022/08/20 09:07:48;;;;;;;72.47;43.83;;;;;;;23.63;83.65;98906.19;8320769;28;20068;-75
2022/08/20 09:11:52;;;;;;;63.05;40.58;;;;;;;23.65;83.57;98909.31;8332989;28;20072;-77
2022/08/20 09:15:54;;;;;;;60.80;38.35;;;;;;;23.79;83.15;98909.28;8342993;28;20082;-76
2022/08/20 09:19:54;;;;;;;62.45;39.80;;;;;;;23.78;82.21;98907.69;8334464;28;20583;-76
2022/08/20 09:23:55;;;;;;;58.90;39.83;;;;;;;23.77;82.15;98911.63;8292173;28;20115;-76
2022/08/20 09:27:56;;;;;;;64.13;41.00;;;;;;;23.67;82.67;98918.00;8341161;28;20116;-75
2022/08/20 09:32:03;;;;;;;57.78;39.28;;;;;;;23.74;82.27;98912.41;8338009;28;20152;-76
2022/08/20 09:36:04;;;;;;;50.00;34.85;;;;;;;23.93;81.81;98909.19;8337867;28;20064;-76
2022/08/20 09:40:07;;;;;;;53.90;36.97;;;;;;;23.93;81.09;98913.91;8294528;28;20516;-76
2022/08/20 09:44:08;;;;;;;53.67;37.95;;;;;;;24.07;81.35;98922.09;8347136;28;20046;-76
2022/08/20 09:48:09;;;;;;;58.70;36.60;;;;;;;24.33;80.22;98938.13;8332858;28;20469;-76
2022/08/20 09:52:24;;;;;;;52.63;35.00;;;;;;;24.38;79.11;98928.63;8339921;28;20102;-76
2022/08/20 09:56:25;;;;;;;58.47;35.42;;;;;;;24.30;79.87;98924.38;8337013;28;20092;-76
2022/08/20 10:00:26;;;;;;;53.55;35.30;;;;;;;24.51;79.38;98921.44;8302776;28;20132;-77
2022/08/20 10:04:27;;;;;;;54.97;35.03;;;;;;;24.73;78.28;98928.38;8350733;28;20096;-77
2022/08/20 10:08:28;;;;;;;45.17;33.30;;;;;;;25.10;77.42;98929.66;8363979;28;20049;-76
2022/08/20 10:12:29;;;;;;;52.92;32.88;;;;;;;25.38;75.78;98915.50;8332409;28;20426;-77
2022/08/20 10:16:30;;;;;;;42.70;28.67;;;;;;;25.48;75.51;98922.94;8332245;28;20153;-77
2022/08/20 10:20:32;;;;;;;48.45;33.92;;;;;;;25.16;74.45;98928.00;8309526;28;20072;-77
2022/08/20 10:24:34;;;;;;;45.13;31.05;;;;;;;25.18;75.41;98915.34;8332734;28;20132;-77
2022/08/20 10:28:35;;;;;;;42.88;30.58;;;;;;;25.32;74.70;98935.75;8340873;28;20040;-75
2022/08/20 10:32:36;;;;;;;45.95;31.13;;;;;;;25.21;75.05;98924.81;8350490;28;20057;-76
2022/08/20 10:36:37;;;;;;;44.55;30.05;;;;;;;25.19;74.33;98938.25;8331308;28;20048;-75
2022/08/20 10:40:38;;;;;;;40.15;27.80;;;;;;;25.04;74.49;98925.75;8331580;28;20057;-76
2022/08/20 10:44:39;;;;;;;47.28;29.55;;;;;;;25.12;74.77;98935.53;8345771;28;20045;-77
2022/08/20 10:48:40;;;;;;;41.58;30.25;;;;;;;25.19;75.04;98935.47;8322471;28;20054;-77
2022/08/20 10:52:42;;;;;;;42.05;30.65;;;;;;;25.15;74.83;98937.50;8305161;28;20052;-76
2022/08/20 10:56:43;;;;;;;44.90;29.65;;;;;;;25.17;74.68;98937.84;8344402;28;20045;-76
2022/08/20 11:00:44;;;;;;;44.70;30.17;;;;;;;25.26;74.95;98943.69;8330872;28;20037;-77
2022/08/20 11:04:46;;;;;;;46.28;32.08;;;;;;;25.32;74.79;98936.53;8242450;28;20558;-77
2022/08/20 11:08:48;;;;;;;42.50;30.77;;;;;;;25.20;75.25;98935.06;8242547;28;20121;-76
2022/08/20 11:12:49;;;;;;;43.03;29.27;;;;;;;25.13;75.42;98934.34;8215231;28;20532;-76
2022/08/20 11:16:50;;;;;;;46.15;31.75;;;;;;;25.14;75.38;98935.91;8231571;28;20106;-76
2022/08/20 11:20:51;;;;;;;45.42;32.13;;;;;;;25.23;75.02;98927.94;8247157;28;20058;-76
2022/08/20 11:24:52;;;;;;;52.15;30.27;;;;;;;25.31;75.10;98923.91;8228389;28;20553;-76
2022/08/20 11:28:53;;;;;;;51.17;31.88;;;;;;;25.46;74.28;98925.31;8260800;28;20064;-77
2022/08/20 11:32:55;;;;;;;41.22;29.42;;;;;;;25.51;73.91;98933.16;8260432;28;20061;-76
2022/08/20 11:36:57;;;;;;;46.95;31.35;;;;;;;25.51;74.25;98922.09;8320197;28;20064;-77
2022/08/20 11:40:59;;;;;;;52.53;31.38;;;;;;;25.47;74.27;98915.81;8321380;28;20049;-77
2022/08/20 11:44:59;;;;;;;40.30;28.10;;;;;;;25.53;74.20;98914.19;8349101;28;20045;-76
2022/08/20 11:49:01;;;;;;;45.85;29.55;;;;;;;25.59;74.28;98923.59;8351882;28;20060;-76
2022/08/20 11:53:02;;;;;;;43.53;30.48;;;;;;;25.50;74.21;98908.66;8289975;28;20398;-76
2022/08/20 11:57:03;;;;;;;43.42;28.88;;;;;;;25.52;74.19;98918.13;8340702;28;20052;-76
2022/08/20 12:01:04;;;;;;;48.38;31.20;;;;;;;25.56;73.88;98913.38;8302581;28;20088;-76
2022/08/20 12:05:06;;;;;;;43.33;27.40;;;;;;;25.82;73.23;98913.84;8344703;28;20052;-76
2022/08/20 12:09:07;;;;;;;41.42;28.35;;;;;;;26.07;72.51;98897.66;8341818;28;20402;-75
2022/08/20 12:13:08;;;;;;;42.83;28.65;;;;;;;26.24;71.67;98902.19;8337944;28;20038;-75
2022/08/20 12:17:12;;;;;;;44.97;29.80;;;;;;;26.25;70.89;98903.00;8349296;28;20041;-75
2022/08/20 12:21:22;;;;;;;43.65;29.00;;;;;;;26.26;70.23;98897.03;8309417;28;20041;-75
2022/08/20 12:25:23;;;;;;;41.95;26.45;;;;;;;26.38;70.57;98890.94;8347670;28;20132;-76
2022/08/20 12:29:26;;;;;;;40.10;27.52;;;;;;;26.46;69.37;98886.84;8343934;28;20473;-75
2022/08/20 12:33:27;;;;;;;39.92;27.02;;;;;;;26.60;69.19;98890.56;8341779;28;20128;-76
2022/08/20 12:37:29;;;;;;;38.33;26.75;;;;;;;26.82;68.00;98875.13;8356564;28;20064;-75
2022/08/20 12:41:30;;;;;;;34.63;22.52;;;;;;;27.05;67.04;98871.59;8348025;28;20174;-75
2022/08/20 12:45:32;;;;;;;36.05;24.70;;;;;;;27.26;66.65;98871.19;8350535;28;20069;-75
2022/08/20 12:49:33;;;;;;;37.28;22.35;;;;;;;27.48;66.25;98866.00;8335706;28;20437;-76
2022/08/20 12:53:34;;;;;;;38.40;21.25;;;;;;;27.60;65.01;98879.25;8341019;28;20045;-76
2022/08/20 12:57:44;;;;;;;35.13;21.48;;;;;;;27.67;64.02;98868.00;8328756;28;20068;-77
2022/08/20 13:01:45;;;;;;;33.85;22.73;;;;;;;27.52;64.02;98861.19;8339901;28;20052;-76
2022/08/20 13:05:46;;;;;;;25.95;18.95;;;;;;;27.67;63.50;98862.44;8329665;28;20057;-77
2022/08/20 13:09:47;;;;;;;31.73;20.67;;;;;;;27.72;63.26;98861.94;8338810;28;20866;-77
2022/08/20 13:13:48;;;;;;;27.48;19.40;;;;;;;27.62;63.00;98846.31;8330610;28;20103;-76
2022/08/20 13:17:54;;;;;;;34.58;20.63;;;;;;;27.72;62.44;98853.59;8331180;28;20045;-76
2022/08/20 13:21:55;;;;;;;29.60;18.63;;;;;;;27.93;62.46;98847.59;8347461;28;20131;-76
2022/08/20 13:25:56;;;;;;;29.48;19.20;;;;;;;28.21;62.49;98850.94;8324745;28;20184;-78
2022/08/20 13:29:57;;;;;;;28.27;18.05;;;;;;;28.62;61.46;98853.09;8343189;28;20095;-77
2022/08/20 13:33:59;;;;;;;26.92;19.10;;;;;;;29.60;58.73;98860.00;8336553;28;20045;-76
2022/08/20 13:38:00;;;;;;;28.90;18.25;;;;;;;30.23;56.16;98857.28;8310821;28;20037;-76
2022/08/20 13:42:04;;;;;;;29.35;18.60;;;;;;;31.05;54.34;98849.75;8335101;28;20041;-77
2022/08/20 13:46:05;;;;;;;26.73;17.63;;;;;;;31.74;51.85;98838.44;8343986;28;20041;-76
2022/08/20 13:50:18;;;;;;;25.90;17.52;;;;;;;32.36;49.93;98838.41;8329883;28;20403;-77
2022/08/20 13:54:19;;;;;;;24.23;16.08;;;;;;;32.85;49.66;98833.53;8344719;28;20079;-77
2022/08/20 13:58:21;;;;;;;25.30;15.27;;;;;;;33.10;48.35;98830.41;8313023;28;20153;-77
2022/08/20 14:02:22;;;;;;;21.95;15.25;;;;;;;33.40;48.10;98837.09;8299783;28;20533;-76
2022/08/20 14:06:23;;;;;;;22.48;14.82;;;;;;;33.86;46.52;98832.16;8339364;28;20057;-76
2022/08/20 14:10:30;;;;;;;26.85;15.25;;;;;;;34.06;45.48;98828.00;8336077;28;20510;-77
2022/08/20 14:14:31;;;;;;;24.10;13.68;;;;;;;34.53;44.56;98836.50;8332865;28;20095;-76
2022/08/20 14:18:31;;;;;;;26.70;13.90;;;;;;;34.86;43.98;98846.88;8348236;28;20056;-77
2022/08/20 14:22:33;;;;;;;22.83;13.23;;;;;;;33.50;45.95;98841.41;8331714;28;20049;-77
2022/08/20 14:26:35;;;;;;;25.17;13.98;;;;;;;31.59;49.62;98849.38;8351801;28;20111;-76
2022/08/20 14:30:36;;;;;;;24.15;13.43;;;;;;;30.34;52.18;98868.84;8353744;28;20810;-76
2022/08/20 14:34:37;;;;;;;26.05;14.50;;;;;;;29.56;55.35;98871.22;8345215;28;20049;-77
2022/08/20 14:38:43;;;;;;;23.23;13.63;;;;;;;28.94;57.22;98847.50;8348919;28;20045;-76
2022/08/20 14:42:45;;;;;;;23.58;14.30;;;;;;;28.49;58.53;98844.69;8337031;28;20409;-76
2022/08/20 14:46:46;;;;;;;21.52;14.02;;;;;;;28.18;59.54;98846.28;8347835;28;20752;-76
2022/08/20 14:50:47;;;;;;;22.58;14.32;;;;;;;28.00;60.50;98841.88;8349924;28;20087;-76
2022/08/20 14:54:49;;;;;;;25.58;15.02;;;;;;;27.87;62.06;98849.31;8334974;28;20036;-76
2022/08/20 14:58:50;;;;;;;24.85;13.90;;;;;;;27.69;63.22;98849.72;8318833;28;20049;-76
2022/08/20 15:02:51;;;;;;;25.48;13.73;;;;;;;27.52;62.68;98850.88;8335227;28;20337;-76
2022/08/20 15:06:52;;;;;;;22.48;12.48;;;;;;;27.39;62.29;98851.94;8343749;28;20056;-77
2022/08/20 15:10:53;;;;;;;26.42;13.63;;;;;;;27.27;62.69;98851.34;8347789;28;20056;-76
2022/08/20 15:14:54;;;;;;;28.00;13.23;;;;;;;27.14;63.00;98864.28;8345430;28;20076;-76
2022/08/20 15:18:55;;;;;;;23.60;12.60;;;;;;;27.00;62.73;98875.66;8348698;28;20041;-75
2022/08/20 15:22:57;;;;;;;22.65;11.88;;;;;;;26.82;62.81;98880.69;8360264;28;20038;-76
2022/08/20 15:26:58;;;;;;;24.75;12.30;;;;;;;26.65;62.95;98876.25;8299821;28;20064;-76
2022/08/20 15:30:58;;;;;;;27.98;12.90;;;;;;;26.54;62.73;98883.97;8356015;28;20496;-77
2022/08/20 15:34:59;;;;;;;26.90;16.50;;;;;;;26.43;63.14;98876.59;8350926;28;20044;-78
2022/08/20 15:39:00;;;;;;;24.50;15.50;;;;;;;26.26;63.98;98879.66;8344848;28;20508;-78
2022/08/20 15:43:03;;;;;;;20.15;12.85;;;;;;;26.16;63.64;98889.66;8335720;28;20111;-79
2022/08/20 15:47:34;;;;;;;21.88;13.23;;;;;;;26.09;63.74;98889.75;8332848;28;20144;-79
2022/08/20 15:51:44;;;;;;;27.30;13.68;;;;;;;25.96;64.13;98886.00;8214393;28;20443;-78
2022/08/20 15:55:55;;;;;;;23.08;13.00;;;;;;;25.86;64.17;98892.44;8205256;28;20047;-77
2022/08/20 15:59:59;;;;;;;32.15;18.50;;;;;;;25.46;68.57;98900.44;8214847;28;20111;-76
2022/08/20 16:04:24;;;;;;;35.20;20.38;;;;;;;24.88;72.87;98900.66;8222125;28;20046;-76
2022/08/20 16:08:50;;;;;;;26.80;17.55;;;;;;;24.49;75.28;98907.25;8221491;28;20511;-75
2022/08/20 16:12:53;;;;;;;30.88;16.30;;;;;;;24.07;80.24;98935.91;8221877;28;20055;-75
2022/08/20 16:17:00;;;;;;;29.90;15.23;;;;;;;23.32;85.34;98940.91;8223690;28;20420;-77
2022/08/20 16:21:07;;;;;;;30.13;15.68;;;;;;;22.89;88.66;98934.69;8224093;28;20158;-76
2022/08/20 16:25:09;;;;;;;17.02;10.10;;;;;;;22.64;89.23;98950.38;8223967;28;20047;-76
2022/08/20 16:29:13;;;;;;;13.57;8.52;;;;;;;22.50;89.21;98950.38;8334646;28;20045;-75
2022/08/20 16:33:32;;;;;;;16.98;7.40;;;;;;;22.31;89.11;98938.53;8333642;28;20435;-75
2022/08/20 16:37:40;;;;;;;15.07;7.03;;;;;;;22.38;88.51;98939.75;8330379;28;20055;-74
2022/08/20 16:41:45;;;;;;;;;;;;;;;22.38;87.91;98937.00;8304004;28;20482;-74
2022/08/20 16:45:52;;;;;;;10.20;5.53;;;;;;;22.33;87.95;98949.97;8335052;28;19921;-73
2022/08/20 16:50:05;;;;;;;9.18;5.00;;;;;;;22.27;87.46;98954.25;8288774;28;20081;-74
2022/08/20 16:54:07;;;;;;;8.23;4.60;;;;;;;22.10;88.33;98971.50;8334635;28;20054;-74
2022/08/20 16:58:09;;;;;;;8.85;4.70;;;;;;;22.01;89.34;98968.34;8339213;28;20040;-73
2022/08/20 17:02:17;;;;;;;10.27;4.50;;;;;;;21.96;89.86;98971.47;8253331;28;20046;-72
2022/08/20 17:06:27;;;;;;;8.02;4.97;;;;;;;21.86;90.60;98980.44;8225667;28;20050;-73
2022/08/20 17:10:54;;;;;;;8.13;5.13;;;;;;;21.88;90.49;98987.13;8252727;28;20491;-73
2022/08/20 17:14:57;;;;;;;11.57;4.97;;;;;;;21.86;90.60;98988.69;8218205;28;20050;-74
2022/08/20 17:19:11;;;;;;;10.95;5.68;;;;;;;21.80;91.32;98981.97;8225716;28;20054;-73
2022/08/20 17:23:17;;;;;;;9.48;6.00;;;;;;;21.76;91.58;98983.94;8199671;28;20137;-74
2022/08/20 17:27:36;;;;;;;9.68;5.78;;;;;;;21.68;92.77;98982.34;8201685;28;20050;-76
2022/08/20 17:31:41;;;;;;;10.45;5.68;;;;;;;21.60;93.69;98986.19;8218110;28;20514;-74
2022/08/20 17:35:51;;;;;;;13.13;6.90;;;;;;;21.53;94.34;98991.66;8219362;28;20043;-73
2022/08/20 17:40:07;;;;;;;14.35;6.05;;;;;;;21.53;94.82;98986.16;8267817;28;20061;-74
2022/08/20 17:44:19;;;;;;;12.70;6.97;;;;;;;21.51;94.81;98972.03;8287600;28;20404;-73
2022/08/20 17:48:26;;;;;;;11.10;6.78;;;;;;;21.40;95.37;98972.75;8284139;28;20437;-73
2022/08/20 17:52:35;;;;;;;12.18;6.47;;;;;;;21.35;95.15;98992.34;8308911;28;20501;-73
2022/08/20 17:56:37;;;;;;;;;;;;;;;21.27;95.75;99001.69;8322166;28;20136;-73
2022/08/20 18:00:38;;;;;;;11.25;6.22;;;;;;;21.27;95.26;98990.72;8313585;28;19921;-73
2022/08/20 18:04:40;;;;;;;8.18;6.22;;;;;;;21.26;95.81;98994.63;8333184;28;20057;-73
2022/08/20 18:08:50;;;;;;;10.13;6.43;;;;;;;21.25;96.00;99004.06;8359576;28;20049;-74
2022/08/20 18:13:48;;;;;;;10.60;6.38;;;;;;;21.24;96.00;99001.69;8329419;28;20060;-73
2022/08/20 18:18:08;;;;;;;8.90;5.85;;;;;;;21.19;96.17;99005.59;8227898;28;20135;-73
2022/08/20 18:22:15;;;;;;;9.10;6.07;;;;;;;21.16;96.63;99011.81;8224147;28;20047;-73
2022/08/20 18:26:23;;;;;;;12.57;6.57;;;;;;;21.13;96.83;99012.56;8213294;28;20047;-74
2022/08/20 18:30:25;;;;;;;11.40;6.37;;;;;;;21.05;97.91;98999.94;8210205;28;20050;-74
2022/08/20 18:34:28;;;;;;;12.02;5.82;;;;;;;21.06;97.77;99018.00;8205637;28;20074;-75
2022/08/20 18:38:30;;;;;;;9.50;6.30;;;;;;;21.07;97.72;99014.06;8220508;28;20069;-74
2022/08/20 18:42:36;;;;;;;10.77;6.05;;;;;;;21.07;97.75;99008.59;8212197;28;20121;-73
2022/08/20 18:46:58;;;;;;;11.30;6.85;;;;;;;20.98;98.30;99008.13;8241707;28;20068;-74